sensor_id;sensor_type;location;lat;lon;timestamp;temperature;humidity
25332;DHT22;13284;52.748;13.452;2024-01-11T00:02:05;-5.20;99.90
25332;DHT22;13284;52.748;13.452;2024-01-11T00:04:31;-5.20;99.90
25332;DHT22;13284;52.748;13.452;2024-01-11T00:06:56;-5.20;99.90
25332;DHT22;13284;52.748;13.452;2024-01-11T00:09:22;-5.10;99.90
25332;DHT22;13284;52.748;13.452;2024-01-11T00:11:47;-5.10;99.90
25332;DHT22;13284;52.748;13.452;2024-01-11T00:14:13;-5.00;99.90
25332;DHT22;13284;52.748;13.452;2024-01-11T00:16:38;-5.00;99.90
25332;DHT22;13284;52.748;13.452;2024-01-11T00:19:04;-5.00;99.90
25332;DHT22;13284;52.748;13.452;2024-01-11T00:21:29;-5.00;99.90
25332;DHT22;13284;52.748;13.452;2024-01-11T00:23:55;-4.90;99.90
25332;DHT22;13284;52.748;13.452;2024-01-11T00:26:20;-4.90;99.90
25332;DHT22;13284;52.748;13.452;2024-01-11T00:28:46;-4.90;99.90
25332;DHT22;13284;52.748;13.452;2024-01-11T00:31:11;-4.80;99.90
25332;DHT22;13284;52.748;13.452;2024-01-11T00:33:37;-4.80;99.90
25332;DHT22;13284;52.748;13.452;2024-01-11T00:36:03;-4.70;99.90
25332;DHT22;13284;52.748;13.452;2024-01-11T00:38:29;-4.70;99.90
25332;DHT22;13284;52.748;13.452;2024-01-11T00:40:54;-4.60;99.90
25332;DHT22;13284;52.748;13.452;2024-01-11T00:43:20;-4.60;99.90
25332;DHT22;13284;52.748;13.452;2024-01-11T00:45:45;-4.60;99.90
25332;DHT22;13284;52.748;13.452;2024-01-11T00:48:11;-4.50;99.90
25332;DHT22;13284;52.748;13.452;2024-01-11T00:50:37;-4.50;99.90
25332;DHT22;13284;52.748;13.452;2024-01-11T00:53:03;-4.50;99.90
25332;DHT22;13284;52.748;13.452;2024-01-11T00:55:29;-4.50;99.90
25332;DHT22;13284;52.748;13.452;2024-01-11T00:57:54;-4.50;99.90
25332;DHT22;13284;52.748;13.452;2024-01-11T01:00:20;-4.60;99.90
25332;DHT22;13284;52.748;13.452;2024-01-11T01:02:45;-4.60;99.90
25332;DHT22;13284;52.748;13.452;2024-01-11T01:05:11;-4.60;99.90
25332;DHT22;13284;52.748;13.452;2024-01-11T01:07:36;-4.50;99.90
25332;DHT22;13284;52.748;13.452;2024-01-11T01:10:02;-4.50;99.90
25332;DHT22;13284;52.748;13.452;2024-01-11T01:12:27;-4.50;99.90
25332;DHT22;13284;52.748;13.452;2024-01-11T01:14:54;-4.40;99.90
25332;DHT22;13284;52.748;13.452;2024-01-11T01:17:21;-4.40;99.90
25332;DHT22;13284;52.748;13.452;2024-01-11T01:19:47;-4.30;99.90
25332;DHT22;13284;52.748;13.452;2024-01-11T01:22:13;-4.30;99.90
25332;DHT22;13284;52.748;13.452;2024-01-11T01:24:38;-4.30;99.90
25332;DHT22;13284;52.748;13.452;2024-01-11T01:27:04;-4.20;99.90
25332;DHT22;13284;52.748;13.452;2024-01-11T01:29:29;-4.20;99.90
25332;DHT22;13284;52.748;13.452;2024-01-11T01:31:55;-4.20;99.90
25332;DHT22;13284;52.748;13.452;2024-01-11T01:34:21;-4.20;99.90
25332;DHT22;13284;52.748;13.452;2024-01-11T01:36:46;-4.20;99.90
25332;DHT22;13284;52.748;13.452;2024-01-11T01:39:12;-4.10;99.90
25332;DHT22;13284;52.748;13.452;2024-01-11T01:41:38;-4.10;99.90
25332;DHT22;13284;52.748;13.452;2024-01-11T01:44:03;-4.10;99.90
25332;DHT22;13284;52.748;13.452;2024-01-11T01:46:29;-4.10;99.90
25332;DHT22;13284;52.748;13.452;2024-01-11T01:48:57;-4.10;99.90
25332;DHT22;13284;52.748;13.452;2024-01-11T01:51:24;-4.10;99.90
25332;DHT22;13284;52.748;13.452;2024-01-11T01:53:53;-4.10;99.90
25332;DHT22;13284;52.748;13.452;2024-01-11T01:56:20;-4.10;99.90
25332;DHT22;13284;52.748;13.452;2024-01-11T01:58:47;-4.00;99.90
25332;DHT22;13284;52.748;13.452;2024-01-11T02:01:14;-4.00;99.90
25332;DHT22;13284;52.748;13.452;2024-01-11T02:03:40;-4.10;99.90
25332;DHT22;13284;52.748;13.452;2024-01-11T02:06:06;-4.00;99.90
25332;DHT22;13284;52.748;13.452;2024-01-11T02:08:32;-4.00;99.90
25332;DHT22;13284;52.748;13.452;2024-01-11T02:11:00;-4.00;99.90
25332;DHT22;13284;52.748;13.452;2024-01-11T02:13:27;-4.10;99.90
25332;DHT22;13284;52.748;13.452;2024-01-11T02:15:52;-4.00;99.90
25332;DHT22;13284;52.748;13.452;2024-01-11T02:18:18;-3.90;99.90
25332;DHT22;13284;52.748;13.452;2024-01-11T02:20:43;-4.00;99.90
25332;DHT22;13284;52.748;13.452;2024-01-11T02:23:14;-3.90;99.90
25332;DHT22;13284;52.748;13.452;2024-01-11T02:25:40;-3.90;99.90
25332;DHT22;13284;52.748;13.452;2024-01-11T02:28:05;-3.90;99.90
25332;DHT22;13284;52.748;13.452;2024-01-11T02:30:31;-3.90;99.90
25332;DHT22;13284;52.748;13.452;2024-01-11T02:32:57;-3.90;99.90
25332;DHT22;13284;52.748;13.452;2024-01-11T02:35:23;-3.80;99.90
25332;DHT22;13284;52.748;13.452;2024-01-11T02:37:49;-3.80;99.90
25332;DHT22;13284;52.748;13.452;2024-01-11T02:40:15;-3.80;99.90
25332;DHT22;13284;52.748;13.452;2024-01-11T02:42:41;-3.70;99.90
25332;DHT22;13284;52.748;13.452;2024-01-11T02:45:07;-3.70;99.90
25332;DHT22;13284;52.748;13.452;2024-01-11T02:47:33;-3.70;99.90
25332;DHT22;13284;52.748;13.452;2024-01-11T02:49:58;-3.60;99.90
25332;DHT22;13284;52.748;13.452;2024-01-11T02:52:24;-3.70;99.90
25332;DHT22;13284;52.748;13.452;2024-01-11T02:54:49;-3.70;99.90
25332;DHT22;13284;52.748;13.452;2024-01-11T02:57:15;-3.70;99.90
25332;DHT22;13284;52.748;13.452;2024-01-11T02:59:41;-3.60;99.90
25332;DHT22;13284;52.748;13.452;2024-01-11T03:02:07;-3.60;99.90
25332;DHT22;13284;52.748;13.452;2024-01-11T03:04:32;-3.50;99.90
25332;DHT22;13284;52.748;13.452;2024-01-11T03:06:58;-3.50;99.90
25332;DHT22;13284;52.748;13.452;2024-01-11T03:09:23;-3.50;99.90
25332;DHT22;13284;52.748;13.452;2024-01-11T03:11:49;-3.50;99.90
25332;DHT22;13284;52.748;13.452;2024-01-11T03:14:14;-3.50;99.90
25332;DHT22;13284;52.748;13.452;2024-01-11T03:16:40;-3.50;99.90
25332;DHT22;13284;52.748;13.452;2024-01-11T03:19:07;-3.50;99.90
25332;DHT22;13284;52.748;13.452;2024-01-11T03:21:32;-3.40;99.90
25332;DHT22;13284;52.748;13.452;2024-01-11T03:23:57;-3.40;99.90
25332;DHT22;13284;52.748;13.452;2024-01-11T03:26:25;-3.40;99.90
25332;DHT22;13284;52.748;13.452;2024-01-11T03:28:50;-3.40;99.90
25332;DHT22;13284;52.748;13.452;2024-01-11T03:31:16;-3.40;99.90
25332;DHT22;13284;52.748;13.452;2024-01-11T03:33:42;-3.40;99.90
25332;DHT22;13284;52.748;13.452;2024-01-11T03:36:11;-3.30;99.90
25332;DHT22;13284;52.748;13.452;2024-01-11T03:38:37;-3.30;99.90
25332;DHT22;13284;52.748;13.452;2024-01-11T03:41:08;-3.30;99.90
25332;DHT22;13284;52.748;13.452;2024-01-11T03:43:34;-3.30;99.90
25332;DHT22;13284;52.748;13.452;2024-01-11T03:45:59;-3.30;99.90
25332;DHT22;13284;52.748;13.452;2024-01-11T03:48:25;-3.30;99.90
25332;DHT22;13284;52.748;13.452;2024-01-11T03:50:50;-3.20;99.90
25332;DHT22;13284;52.748;13.452;2024-01-11T03:53:16;-3.20;99.90
25332;DHT22;13284;52.748;13.452;2024-01-11T03:55:41;-3.30;99.90
25332;DHT22;13284;52.748;13.452;2024-01-11T03:58:07;-3.30;99.90
25332;DHT22;13284;52.748;13.452;2024-01-11T04:00:32;-3.20;99.90
25332;DHT22;13284;52.748;13.452;2024-01-11T04:02:59;-3.20;99.90
25332;DHT22;13284;52.748;13.452;2024-01-11T04:05:24;-3.20;99.90
25332;DHT22;13284;52.748;13.452;2024-01-11T04:07:50;-3.10;99.90
25332;DHT22;13284;52.748;13.452;2024-01-11T04:10:17;-3.10;99.90
25332;DHT22;13284;52.748;13.452;2024-01-11T04:12:43;-3.10;99.90
25332;DHT22;13284;52.748;13.452;2024-01-11T04:15:11;-3.10;99.90
25332;DHT22;13284;52.748;13.452;2024-01-11T04:17:38;-3.00;99.90
25332;DHT22;13284;52.748;13.452;2024-01-11T04:20:04;-3.00;99.90
25332;DHT22;13284;52.748;13.452;2024-01-11T04:22:30;-3.00;99.90
25332;DHT22;13284;52.748;13.452;2024-01-11T04:24:55;-3.00;99.90
25332;DHT22;13284;52.748;13.452;2024-01-11T04:27:21;-3.00;99.90
25332;DHT22;13284;52.748;13.452;2024-01-11T04:29:46;-3.00;99.90
25332;DHT22;13284;52.748;13.452;2024-01-11T04:32:12;-2.90;99.90
25332;DHT22;13284;52.748;13.452;2024-01-11T04:34:37;-2.90;99.90
25332;DHT22;13284;52.748;13.452;2024-01-11T04:37:03;-2.90;99.90
25332;DHT22;13284;52.748;13.452;2024-01-11T04:39:29;-2.90;99.90
25332;DHT22;13284;52.748;13.452;2024-01-11T04:41:54;-3.00;99.90
25332;DHT22;13284;52.748;13.452;2024-01-11T04:44:19;-2.90;99.90
25332;DHT22;13284;52.748;13.452;2024-01-11T04:46:45;-2.90;99.90
25332;DHT22;13284;52.748;13.452;2024-01-11T04:49:11;-2.90;99.90
25332;DHT22;13284;52.748;13.452;2024-01-11T04:51:36;-3.00;99.90
25332;DHT22;13284;52.748;13.452;2024-01-11T04:54:02;-3.00;99.90
25332;DHT22;13284;52.748;13.452;2024-01-11T04:56:27;-2.90;99.90
25332;DHT22;13284;52.748;13.452;2024-01-11T04:58:55;-2.90;99.90
25332;DHT22;13284;52.748;13.452;2024-01-11T05:01:20;-2.90;99.90
25332;DHT22;13284;52.748;13.452;2024-01-11T05:03:47;-2.90;99.90
25332;DHT22;13284;52.748;13.452;2024-01-11T05:06:21;-2.90;99.90
25332;DHT22;13284;52.748;13.452;2024-01-11T05:08:49;-2.90;99.90
25332;DHT22;13284;52.748;13.452;2024-01-11T05:11:19;-2.90;99.90
25332;DHT22;13284;52.748;13.452;2024-01-11T05:13:45;-2.90;99.90
25332;DHT22;13284;52.748;13.452;2024-01-11T05:16:24;-2.80;99.90
25332;DHT22;13284;52.748;13.452;2024-01-11T05:18:50;-2.80;99.90
25332;DHT22;13284;52.748;13.452;2024-01-11T05:21:16;-2.80;99.90
25332;DHT22;13284;52.748;13.452;2024-01-11T05:23:42;-2.80;99.90
25332;DHT22;13284;52.748;13.452;2024-01-11T05:26:08;-2.80;99.90
25332;DHT22;13284;52.748;13.452;2024-01-11T05:28:34;-2.70;99.90
25332;DHT22;13284;52.748;13.452;2024-01-11T05:31:00;-2.80;99.90
25332;DHT22;13284;52.748;13.452;2024-01-11T05:33:25;-2.80;99.90
25332;DHT22;13284;52.748;13.452;2024-01-11T05:35:51;-2.80;99.90
25332;DHT22;13284;52.748;13.452;2024-01-11T05:38:19;-2.80;99.90
25332;DHT22;13284;52.748;13.452;2024-01-11T05:40:44;-2.70;99.90
25332;DHT22;13284;52.748;13.452;2024-01-11T05:43:10;-2.70;99.90
25332;DHT22;13284;52.748;13.452;2024-01-11T05:45:36;-2.70;99.90
25332;DHT22;13284;52.748;13.452;2024-01-11T05:48:01;-2.70;99.90
25332;DHT22;13284;52.748;13.452;2024-01-11T05:50:27;-2.60;99.90
25332;DHT22;13284;52.748;13.452;2024-01-11T05:52:52;-2.60;99.90
25332;DHT22;13284;52.748;13.452;2024-01-11T05:55:20;-2.60;99.90
25332;DHT22;13284;52.748;13.452;2024-01-11T05:57:45;-2.50;99.90
25332;DHT22;13284;52.748;13.452;2024-01-11T06:00:11;-2.50;99.90
25332;DHT22;13284;52.748;13.452;2024-01-11T06:02:37;-2.50;99.90
25332;DHT22;13284;52.748;13.452;2024-01-11T06:05:02;-2.50;99.90
25332;DHT22;13284;52.748;13.452;2024-01-11T06:07:28;-2.40;99.90
25332;DHT22;13284;52.748;13.452;2024-01-11T06:09:54;-2.40;99.90
25332;DHT22;13284;52.748;13.452;2024-01-11T06:12:20;-2.40;99.90
25332;DHT22;13284;52.748;13.452;2024-01-11T06:14:46;-2.30;99.90
25332;DHT22;13284;52.748;13.452;2024-01-11T06:17:11;-2.40;99.90
25332;DHT22;13284;52.748;13.452;2024-01-11T06:19:37;-2.30;99.90
25332;DHT22;13284;52.748;13.452;2024-01-11T06:22:04;-2.30;99.90
25332;DHT22;13284;52.748;13.452;2024-01-11T06:24:30;-2.40;99.90
25332;DHT22;13284;52.748;13.452;2024-01-11T06:26:56;-2.30;99.90
25332;DHT22;13284;52.748;13.452;2024-01-11T06:29:21;-2.30;99.90
25332;DHT22;13284;52.748;13.452;2024-01-11T06:31:47;-2.30;99.90
25332;DHT22;13284;52.748;13.452;2024-01-11T06:34:12;-2.20;99.90
25332;DHT22;13284;52.748;13.452;2024-01-11T06:36:38;-2.20;99.90
25332;DHT22;13284;52.748;13.452;2024-01-11T06:39:03;-2.20;99.90
25332;DHT22;13284;52.748;13.452;2024-01-11T06:41:29;-2.20;99.90
25332;DHT22;13284;52.748;13.452;2024-01-11T06:43:55;-2.20;99.90
25332;DHT22;13284;52.748;13.452;2024-01-11T06:46:21;-2.20;99.90
25332;DHT22;13284;52.748;13.452;2024-01-11T06:48:47;-2.20;99.90
25332;DHT22;13284;52.748;13.452;2024-01-11T06:51:16;-2.10;99.90
25332;DHT22;13284;52.748;13.452;2024-01-11T06:53:42;-2.10;99.90
25332;DHT22;13284;52.748;13.452;2024-01-11T06:56:18;-2.00;99.90
25332;DHT22;13284;52.748;13.452;2024-01-11T06:58:45;-2.00;99.90
25332;DHT22;13284;52.748;13.452;2024-01-11T07:01:11;-2.00;99.90
25332;DHT22;13284;52.748;13.452;2024-01-11T07:03:37;-2.00;99.90
25332;DHT22;13284;52.748;13.452;2024-01-11T07:06:03;-2.00;99.90
25332;DHT22;13284;52.748;13.452;2024-01-11T07:08:29;-1.90;99.90
25332;DHT22;13284;52.748;13.452;2024-01-11T07:10:55;-1.90;99.90
25332;DHT22;13284;52.748;13.452;2024-01-11T07:13:20;-1.80;99.90
25332;DHT22;13284;52.748;13.452;2024-01-11T07:15:46;-1.80;99.90
25332;DHT22;13284;52.748;13.452;2024-01-11T07:18:13;-1.80;99.90
25332;DHT22;13284;52.748;13.452;2024-01-11T07:20:38;-1.70;99.90
25332;DHT22;13284;52.748;13.452;2024-01-11T07:23:04;-1.60;99.90
25332;DHT22;13284;52.748;13.452;2024-01-11T07:25:29;-1.70;99.90
25332;DHT22;13284;52.748;13.452;2024-01-11T07:27:55;-1.60;99.90
25332;DHT22;13284;52.748;13.452;2024-01-11T07:30:21;-1.60;99.90
25332;DHT22;13284;52.748;13.452;2024-01-11T07:32:46;-1.60;99.90
25332;DHT22;13284;52.748;13.452;2024-01-11T07:35:12;-1.60;99.90
25332;DHT22;13284;52.748;13.452;2024-01-11T07:37:38;-1.50;99.90
25332;DHT22;13284;52.748;13.452;2024-01-11T07:40:05;-1.50;99.90
25332;DHT22;13284;52.748;13.452;2024-01-11T07:42:35;-1.50;99.90
25332;DHT22;13284;52.748;13.452;2024-01-11T07:45:01;-1.50;99.90
25332;DHT22;13284;52.748;13.452;2024-01-11T07:47:26;-1.40;99.90
25332;DHT22;13284;52.748;13.452;2024-01-11T07:49:52;-1.40;99.90
25332;DHT22;13284;52.748;13.452;2024-01-11T07:52:17;-1.30;99.90
25332;DHT22;13284;52.748;13.452;2024-01-11T07:54:43;-1.40;99.90
25332;DHT22;13284;52.748;13.452;2024-01-11T07:57:08;-1.30;99.90
25332;DHT22;13284;52.748;13.452;2024-01-11T07:59:34;-1.30;99.90
25332;DHT22;13284;52.748;13.452;2024-01-11T08:02:01;-1.30;99.90
25332;DHT22;13284;52.748;13.452;2024-01-11T08:04:27;-1.30;99.90
25332;DHT22;13284;52.748;13.452;2024-01-11T08:06:52;-1.20;99.90
25332;DHT22;13284;52.748;13.452;2024-01-11T08:09:18;-1.20;99.90
25332;DHT22;13284;52.748;13.452;2024-01-11T08:11:44;-1.20;99.90
25332;DHT22;13284;52.748;13.452;2024-01-11T08:14:09;-1.20;99.90
25332;DHT22;13284;52.748;13.452;2024-01-11T08:16:35;-1.10;99.90
25332;DHT22;13284;52.748;13.452;2024-01-11T08:19:00;-1.10;99.90
25332;DHT22;13284;52.748;13.452;2024-01-11T08:21:26;-1.10;99.90
25332;DHT22;13284;52.748;13.452;2024-01-11T08:23:52;-1.10;99.90
25332;DHT22;13284;52.748;13.452;2024-01-11T08:26:17;-1.10;99.90
25332;DHT22;13284;52.748;13.452;2024-01-11T08:28:47;-1.00;99.90
25332;DHT22;13284;52.748;13.452;2024-01-11T08:31:13;-1.00;99.90
25332;DHT22;13284;52.748;13.452;2024-01-11T08:33:39;-1.00;99.90
25332;DHT22;13284;52.748;13.452;2024-01-11T08:36:05;-1.00;99.90
25332;DHT22;13284;52.748;13.452;2024-01-11T08:38:32;-0.90;99.90
25332;DHT22;13284;52.748;13.452;2024-01-11T08:40:57;-0.90;99.90
25332;DHT22;13284;52.748;13.452;2024-01-11T08:43:27;-0.90;99.90
25332;DHT22;13284;52.748;13.452;2024-01-11T08:45:52;-0.90;99.90
25332;DHT22;13284;52.748;13.452;2024-01-11T08:48:18;-0.80;99.90
25332;DHT22;13284;52.748;13.452;2024-01-11T08:50:43;-0.80;99.90
25332;DHT22;13284;52.748;13.452;2024-01-11T08:53:09;-0.80;99.90
25332;DHT22;13284;52.748;13.452;2024-01-11T08:55:34;-0.70;99.90
25332;DHT22;13284;52.748;13.452;2024-01-11T08:58:00;-0.70;99.90
25332;DHT22;13284;52.748;13.452;2024-01-11T09:00:26;-0.70;99.90
25332;DHT22;13284;52.748;13.452;2024-01-11T09:02:52;-0.60;99.90
25332;DHT22;13284;52.748;13.452;2024-01-11T09:05:17;-0.50;99.90
25332;DHT22;13284;52.748;13.452;2024-01-11T09:07:43;-0.50;99.90
25332;DHT22;13284;52.748;13.452;2024-01-11T09:10:09;-0.50;99.90
25332;DHT22;13284;52.748;13.452;2024-01-11T09:12:35;-0.50;99.90
25332;DHT22;13284;52.748;13.452;2024-01-11T09:15:01;-0.50;99.90
25332;DHT22;13284;52.748;13.452;2024-01-11T09:17:27;-0.50;99.90
25332;DHT22;13284;52.748;13.452;2024-01-11T09:19:52;-0.50;99.90
25332;DHT22;13284;52.748;13.452;2024-01-11T09:22:18;-0.40;99.90
25332;DHT22;13284;52.748;13.452;2024-01-11T09:24:43;-0.50;99.90
25332;DHT22;13284;52.748;13.452;2024-01-11T09:27:09;-0.40;99.90
25332;DHT22;13284;52.748;13.452;2024-01-11T09:29:34;-0.40;99.90
25332;DHT22;13284;52.748;13.452;2024-01-11T09:32:00;-0.40;99.90
25332;DHT22;13284;52.748;13.452;2024-01-11T09:34:26;-0.40;99.90
25332;DHT22;13284;52.748;13.452;2024-01-11T09:36:51;-0.40;99.90
25332;DHT22;13284;52.748;13.452;2024-01-11T09:39:17;-0.40;99.90
25332;DHT22;13284;52.748;13.452;2024-01-11T09:42:03;-0.40;99.90
25332;DHT22;13284;52.748;13.452;2024-01-11T09:44:32;-0.40;99.90
25332;DHT22;13284;52.748;13.452;2024-01-11T09:46:58;-0.40;99.90
25332;DHT22;13284;52.748;13.452;2024-01-11T09:49:25;-0.30;99.90
25332;DHT22;13284;52.748;13.452;2024-01-11T09:51:51;-0.30;99.90
25332;DHT22;13284;52.748;13.452;2024-01-11T09:54:18;-0.30;99.90
25332;DHT22;13284;52.748;13.452;2024-01-11T09:56:46;-0.30;99.90
25332;DHT22;13284;52.748;13.452;2024-01-11T09:59:16;-0.30;99.90
25332;DHT22;13284;52.748;13.452;2024-01-11T10:01:43;-0.20;99.90
25332;DHT22;13284;52.748;13.452;2024-01-11T10:04:09;-0.20;99.90
25332;DHT22;13284;52.748;13.452;2024-01-11T10:06:38;-0.20;99.90
25332;DHT22;13284;52.748;13.452;2024-01-11T10:09:04;-0.20;99.90
25332;DHT22;13284;52.748;13.452;2024-01-11T10:11:30;-0.20;99.90
25332;DHT22;13284;52.748;13.452;2024-01-11T10:13:57;-0.20;99.90
25332;DHT22;13284;52.748;13.452;2024-01-11T10:16:23;-0.20;99.90
25332;DHT22;13284;52.748;13.452;2024-01-11T10:18:49;-0.10;99.90
25332;DHT22;13284;52.748;13.452;2024-01-11T10:21:15;-0.20;99.90
25332;DHT22;13284;52.748;13.452;2024-01-11T10:23:41;-0.10;99.90
25332;DHT22;13284;52.748;13.452;2024-01-11T10:26:07;-0.20;99.90
25332;DHT22;13284;52.748;13.452;2024-01-11T10:28:32;-0.10;99.90
25332;DHT22;13284;52.748;13.452;2024-01-11T10:31:05;-0.20;99.90
25332;DHT22;13284;52.748;13.452;2024-01-11T10:33:34;-0.10;99.90
25332;DHT22;13284;52.748;13.452;2024-01-11T10:36:01;-0.10;99.90
25332;DHT22;13284;52.748;13.452;2024-01-11T10:38:28;0.00;99.90
25332;DHT22;13284;52.748;13.452;2024-01-11T10:40:55;0.00;99.90
25332;DHT22;13284;52.748;13.452;2024-01-11T10:43:25;0.00;99.90
25332;DHT22;13284;52.748;13.452;2024-01-11T10:45:52;0.00;99.90
25332;DHT22;13284;52.748;13.452;2024-01-11T10:48:22;0.00;99.90
25332;DHT22;13284;52.748;13.452;2024-01-11T10:50:55;0.10;99.90
25332;DHT22;13284;52.748;13.452;2024-01-11T10:53:31;0.10;99.90
25332;DHT22;13284;52.748;13.452;2024-01-11T10:56:01;0.10;99.90
25332;DHT22;13284;52.748;13.452;2024-01-11T10:58:29;0.20;99.90
25332;DHT22;13284;52.748;13.452;2024-01-11T11:00:56;0.20;99.90
25332;DHT22;13284;52.748;13.452;2024-01-11T11:03:26;0.20;99.90
25332;DHT22;13284;52.748;13.452;2024-01-11T11:05:54;0.20;99.90
25332;DHT22;13284;52.748;13.452;2024-01-11T11:08:22;0.30;99.90
25332;DHT22;13284;52.748;13.452;2024-01-11T11:10:51;0.20;99.90
25332;DHT22;13284;52.748;13.452;2024-01-11T11:13:20;0.30;99.90
25332;DHT22;13284;52.748;13.452;2024-01-11T11:15:46;0.40;99.90
25332;DHT22;13284;52.748;13.452;2024-01-11T11:18:15;0.40;99.90
25332;DHT22;13284;52.748;13.452;2024-01-11T11:20:42;0.40;99.90
25332;DHT22;13284;52.748;13.452;2024-01-11T11:23:08;0.40;99.90
25332;DHT22;13284;52.748;13.452;2024-01-11T11:25:40;0.30;99.90
25332;DHT22;13284;52.748;13.452;2024-01-11T11:28:06;0.40;99.90
25332;DHT22;13284;52.748;13.452;2024-01-11T11:30:39;0.40;99.90
25332;DHT22;13284;52.748;13.452;2024-01-11T11:33:25;0.40;99.90
25332;DHT22;13284;52.748;13.452;2024-01-11T11:35:57;0.40;99.90
25332;DHT22;13284;52.748;13.452;2024-01-11T11:38:32;0.40;99.90
25332;DHT22;13284;52.748;13.452;2024-01-11T11:41:01;0.40;99.90
25332;DHT22;13284;52.748;13.452;2024-01-11T11:43:28;0.40;99.90
25332;DHT22;13284;52.748;13.452;2024-01-11T11:45:54;0.40;99.90
25332;DHT22;13284;52.748;13.452;2024-01-11T11:51:11;0.50;99.90
25332;DHT22;13284;52.748;13.452;2024-01-11T11:53:37;0.40;99.90
25332;DHT22;13284;52.748;13.452;2024-01-11T11:56:04;0.40;99.90
25332;DHT22;13284;52.748;13.452;2024-01-11T11:58:31;0.40;99.90
25332;DHT22;13284;52.748;13.452;2024-01-11T12:00:59;0.50;99.90
25332;DHT22;13284;52.748;13.452;2024-01-11T12:03:36;0.50;99.90
25332;DHT22;13284;52.748;13.452;2024-01-11T12:06:09;0.50;99.90
25332;DHT22;13284;52.748;13.452;2024-01-11T12:08:41;0.50;99.90
25332;DHT22;13284;52.748;13.452;2024-01-11T12:11:08;0.50;99.90
25332;DHT22;13284;52.748;13.452;2024-01-11T12:13:35;0.60;99.90
25332;DHT22;13284;52.748;13.452;2024-01-11T12:16:01;0.70;99.90
25332;DHT22;13284;52.748;13.452;2024-01-11T12:18:28;0.70;99.90
25332;DHT22;13284;52.748;13.452;2024-01-11T12:20:53;0.70;99.90
25332;DHT22;13284;52.748;13.452;2024-01-11T12:23:19;0.80;99.90
25332;DHT22;13284;52.748;13.452;2024-01-11T12:25:45;0.90;99.90
25332;DHT22;13284;52.748;13.452;2024-01-11T12:28:12;0.90;99.90
25332;DHT22;13284;52.748;13.452;2024-01-11T12:30:38;0.90;99.90
25332;DHT22;13284;52.748;13.452;2024-01-11T12:33:05;1.00;99.90
25332;DHT22;13284;52.748;13.452;2024-01-11T12:35:31;1.00;99.90
25332;DHT22;13284;52.748;13.452;2024-01-11T12:38:05;1.10;99.90
25332;DHT22;13284;52.748;13.452;2024-01-11T12:40:35;1.10;99.90
25332;DHT22;13284;52.748;13.452;2024-01-11T12:43:03;1.10;99.90
25332;DHT22;13284;52.748;13.452;2024-01-11T12:45:29;1.10;99.90
25332;DHT22;13284;52.748;13.452;2024-01-11T12:47:58;1.10;99.90
25332;DHT22;13284;52.748;13.452;2024-01-11T12:50:27;1.00;99.90
25332;DHT22;13284;52.748;13.452;2024-01-11T12:53:13;1.00;99.90
25332;DHT22;13284;52.748;13.452;2024-01-11T12:55:49;1.00;99.90
25332;DHT22;13284;52.748;13.452;2024-01-11T12:58:26;1.10;99.90
25332;DHT22;13284;52.748;13.452;2024-01-11T13:00:52;1.10;99.90
25332;DHT22;13284;52.748;13.452;2024-01-11T13:03:19;1.10;99.90
25332;DHT22;13284;52.748;13.452;2024-01-11T13:05:46;1.10;99.90
25332;DHT22;13284;52.748;13.452;2024-01-11T13:08:11;1.10;99.90
25332;DHT22;13284;52.748;13.452;2024-01-11T13:10:37;1.10;99.90
25332;DHT22;13284;52.748;13.452;2024-01-11T13:13:04;1.00;99.90
25332;DHT22;13284;52.748;13.452;2024-01-11T13:15:30;1.10;99.90
25332;DHT22;13284;52.748;13.452;2024-01-11T13:17:57;1.00;99.90
25332;DHT22;13284;52.748;13.452;2024-01-11T13:20:23;1.00;99.90
25332;DHT22;13284;52.748;13.452;2024-01-11T13:22:53;1.00;99.90
25332;DHT22;13284;52.748;13.452;2024-01-11T13:25:18;1.00;99.90
25332;DHT22;13284;52.748;13.452;2024-01-11T13:27:44;1.10;99.90
25332;DHT22;13284;52.748;13.452;2024-01-11T13:30:10;1.10;99.90
25332;DHT22;13284;52.748;13.452;2024-01-11T13:32:35;1.00;99.90
25332;DHT22;13284;52.748;13.452;2024-01-11T13:35:01;0.90;99.90
25332;DHT22;13284;52.748;13.452;2024-01-11T13:37:27;0.90;99.90
25332;DHT22;13284;52.748;13.452;2024-01-11T13:39:52;0.90;99.90
25332;DHT22;13284;52.748;13.452;2024-01-11T13:42:18;1.00;99.90
25332;DHT22;13284;52.748;13.452;2024-01-11T13:44:43;1.00;99.90
25332;DHT22;13284;52.748;13.452;2024-01-11T13:47:09;0.90;99.90
25332;DHT22;13284;52.748;13.452;2024-01-11T13:49:34;0.80;99.90
25332;DHT22;13284;52.748;13.452;2024-01-11T13:52:00;0.80;99.90
25332;DHT22;13284;52.748;13.452;2024-01-11T13:54:26;0.80;99.90
25332;DHT22;13284;52.748;13.452;2024-01-11T13:56:51;0.80;99.90
25332;DHT22;13284;52.748;13.452;2024-01-11T13:59:17;0.80;99.90
25332;DHT22;13284;52.748;13.452;2024-01-11T14:01:43;0.80;99.90
25332;DHT22;13284;52.748;13.452;2024-01-11T14:04:08;0.80;99.90
25332;DHT22;13284;52.748;13.452;2024-01-11T14:06:34;0.80;99.90
25332;DHT22;13284;52.748;13.452;2024-01-11T14:09:00;0.70;99.90
25332;DHT22;13284;52.748;13.452;2024-01-11T14:11:25;0.70;99.90
25332;DHT22;13284;52.748;13.452;2024-01-11T14:13:51;0.70;99.90
25332;DHT22;13284;52.748;13.452;2024-01-11T14:16:16;0.70;99.90
25332;DHT22;13284;52.748;13.452;2024-01-11T14:18:42;0.70;99.90
25332;DHT22;13284;52.748;13.452;2024-01-11T14:21:07;0.80;99.90
25332;DHT22;13284;52.748;13.452;2024-01-11T14:23:37;0.70;99.90
25332;DHT22;13284;52.748;13.452;2024-01-11T14:26:02;0.70;99.90
25332;DHT22;13284;52.748;13.452;2024-01-11T14:28:28;0.70;99.90
25332;DHT22;13284;52.748;13.452;2024-01-11T14:30:53;0.70;99.90
25332;DHT22;13284;52.748;13.452;2024-01-11T14:33:19;0.70;99.90
25332;DHT22;13284;52.748;13.452;2024-01-11T14:35:45;0.80;99.90
25332;DHT22;13284;52.748;13.452;2024-01-11T14:38:10;0.70;99.90
25332;DHT22;13284;52.748;13.452;2024-01-11T14:40:36;0.70;99.90
25332;DHT22;13284;52.748;13.452;2024-01-11T14:43:02;0.60;99.90
25332;DHT22;13284;52.748;13.452;2024-01-11T14:45:31;0.70;99.90
25332;DHT22;13284;52.748;13.452;2024-01-11T14:48:06;0.70;99.90
25332;DHT22;13284;52.748;13.452;2024-01-11T14:50:49;0.70;99.90
25332;DHT22;13284;52.748;13.452;2024-01-11T14:53:24;0.70;99.90
25332;DHT22;13284;52.748;13.452;2024-01-11T14:55:50;0.70;99.90
25332;DHT22;13284;52.748;13.452;2024-01-11T14:58:23;0.70;99.90
25332;DHT22;13284;52.748;13.452;2024-01-11T15:00:55;0.70;99.90
25332;DHT22;13284;52.748;13.452;2024-01-11T15:03:35;0.60;99.90
25332;DHT22;13284;52.748;13.452;2024-01-11T15:06:26;0.60;99.90
25332;DHT22;13284;52.748;13.452;2024-01-11T15:09:03;0.60;99.90
25332;DHT22;13284;52.748;13.452;2024-01-11T15:11:44;0.60;99.90
25332;DHT22;13284;52.748;13.452;2024-01-11T15:14:16;0.70;99.90
25332;DHT22;13284;52.748;13.452;2024-01-11T15:16:45;0.50;99.90
25332;DHT22;13284;52.748;13.452;2024-01-11T15:19:12;0.60;99.90
25332;DHT22;13284;52.748;13.452;2024-01-11T15:21:41;0.60;99.90